sensor_id;sensor_type;location;lat;lon;timestamp;temperature;humidity
19813;DHT22;10066;48.108;11.448;2023-07-24T00:00:54;18.10;99.90
19813;DHT22;10066;48.108;11.448;2023-07-24T00:03:20;18.10;99.90
19813;DHT22;10066;48.108;11.448;2023-07-24T00:05:49;18.10;99.90
19813;DHT22;10066;48.108;11.448;2023-07-24T00:08:16;18.10;99.90
19813;DHT22;10066;48.108;11.448;2023-07-24T00:13:10;18.10;99.90
19813;DHT22;10066;48.108;11.448;2023-07-24T00:15:38;18.10;99.90
19813;DHT22;10066;48.108;11.448;2023-07-24T00:18:05;18.10;99.90
19813;DHT22;10066;48.108;11.448;2023-07-24T00:20:32;18.10;99.90
19813;DHT22;10066;48.108;11.448;2023-07-24T00:23:00;18.00;99.90
19813;DHT22;10066;48.108;11.448;2023-07-24T00:25:27;18.00;99.90
19813;DHT22;10066;48.108;11.448;2023-07-24T00:27:54;18.00;99.90
19813;DHT22;10066;48.108;11.448;2023-07-24T00:30:21;18.00;99.90
19813;DHT22;10066;48.108;11.448;2023-07-24T00:32:48;18.00;99.90
19813;DHT22;10066;48.108;11.448;2023-07-24T00:35:15;17.90;99.90
19813;DHT22;10066;48.108;11.448;2023-07-24T00:37:42;18.00;99.90
19813;DHT22;10066;48.108;11.448;2023-07-24T00:40:11;17.90;99.90
19813;DHT22;10066;48.108;11.448;2023-07-24T00:42:39;17.90;99.90
19813;DHT22;10066;48.108;11.448;2023-07-24T00:45:06;17.90;99.90
19813;DHT22;10066;48.108;11.448;2023-07-24T00:47:34;17.90;99.90
19813;DHT22;10066;48.108;11.448;2023-07-24T00:50:01;17.80;99.90
19813;DHT22;10066;48.108;11.448;2023-07-24T00:52:28;17.80;99.90
19813;DHT22;10066;48.108;11.448;2023-07-24T00:54:55;17.80;99.90
19813;DHT22;10066;48.108;11.448;2023-07-24T00:57:23;17.80;99.90
19813;DHT22;10066;48.108;11.448;2023-07-24T00:59:51;17.80;99.90
19813;DHT22;10066;48.108;11.448;2023-07-24T01:02:18;17.80;99.90
19813;DHT22;10066;48.108;11.448;2023-07-24T01:04:46;17.70;99.90
19813;DHT22;10066;48.108;11.448;2023-07-24T01:07:13;17.70;99.90
19813;DHT22;10066;48.108;11.448;2023-07-24T01:09:42;17.70;99.90
19813;DHT22;10066;48.108;11.448;2023-07-24T01:12:13;17.70;99.90
19813;DHT22;10066;48.108;11.448;2023-07-24T01:14:55;17.70;99.90
19813;DHT22;10066;48.108;11.448;2023-07-24T01:17:25;17.70;99.90
19813;DHT22;10066;48.108;11.448;2023-07-24T01:19:55;17.70;99.90
19813;DHT22;10066;48.108;11.448;2023-07-24T01:22:31;17.60;99.90
19813;DHT22;10066;48.108;11.448;2023-07-24T01:25:10;17.60;99.90
19813;DHT22;10066;48.108;11.448;2023-07-24T01:27:44;17.60;99.90
19813;DHT22;10066;48.108;11.448;2023-07-24T01:30:11;17.60;99.90
19813;DHT22;10066;48.108;11.448;2023-07-24T01:32:38;17.60;99.90
19813;DHT22;10066;48.108;11.448;2023-07-24T01:35:06;17.60;99.90
19813;DHT22;10066;48.108;11.448;2023-07-24T01:37:34;17.60;99.90
19813;DHT22;10066;48.108;11.448;2023-07-24T01:40:02;17.60;99.90
19813;DHT22;10066;48.108;11.448;2023-07-24T01:42:29;17.60;99.90
19813;DHT22;10066;48.108;11.448;2023-07-24T01:44:58;17.60;99.90
19813;DHT22;10066;48.108;11.448;2023-07-24T01:47:25;17.60;99.90
19813;DHT22;10066;48.108;11.448;2023-07-24T01:49:52;17.50;99.90
19813;DHT22;10066;48.108;11.448;2023-07-24T01:52:19;17.60;99.90
19813;DHT22;10066;48.108;11.448;2023-07-24T01:54:47;17.60;99.90
19813;DHT22;10066;48.108;11.448;2023-07-24T01:57:14;17.60;99.90
19813;DHT22;10066;48.108;11.448;2023-07-24T01:59:40;17.60;99.90
19813;DHT22;10066;48.108;11.448;2023-07-24T02:02:09;17.60;99.90
19813;DHT22;10066;48.108;11.448;2023-07-24T02:04:36;17.60;99.90
19813;DHT22;10066;48.108;11.448;2023-07-24T02:07:03;17.60;99.90
19813;DHT22;10066;48.108;11.448;2023-07-24T02:09:31;17.60;99.90
19813;DHT22;10066;48.108;11.448;2023-07-24T02:11:58;17.60;99.90
19813;DHT22;10066;48.108;11.448;2023-07-24T02:14:25;17.60;99.90
19813;DHT22;10066;48.108;11.448;2023-07-24T02:16:52;17.60;99.90
19813;DHT22;10066;48.108;11.448;2023-07-24T02:19:20;17.70;99.90
19813;DHT22;10066;48.108;11.448;2023-07-24T02:21:48;17.80;99.90
19813;DHT22;10066;48.108;11.448;2023-07-24T02:24:14;17.80;99.90
19813;DHT22;10066;48.108;11.448;2023-07-24T02:26:42;17.80;99.90
19813;DHT22;10066;48.108;11.448;2023-07-24T02:29:09;17.80;99.90
19813;DHT22;10066;48.108;11.448;2023-07-24T02:31:36;17.90;99.90
19813;DHT22;10066;48.108;11.448;2023-07-24T02:34:03;17.90;99.90
19813;DHT22;10066;48.108;11.448;2023-07-24T02:36:31;18.00;99.90
19813;DHT22;10066;48.108;11.448;2023-07-24T02:38:58;18.00;99.90
19813;DHT22;10066;48.108;11.448;2023-07-24T02:41:25;18.00;99.90
19813;DHT22;10066;48.108;11.448;2023-07-24T02:43:52;18.00;99.90
19813;DHT22;10066;48.108;11.448;2023-07-24T02:46:19;18.10;99.90
19813;DHT22;10066;48.108;11.448;2023-07-24T02:48:48;18.20;99.90
19813;DHT22;10066;48.108;11.448;2023-07-24T02:51:15;18.30;99.90
19813;DHT22;10066;48.108;11.448;2023-07-24T02:53:44;18.50;99.90
19813;DHT22;10066;48.108;11.448;2023-07-24T02:56:10;18.50;99.90
19813;DHT22;10066;48.108;11.448;2023-07-24T02:58:37;18.60;99.90
19813;DHT22;10066;48.108;11.448;2023-07-24T03:01:05;18.70;99.90
19813;DHT22;10066;48.108;11.448;2023-07-24T03:03:32;18.80;99.90
19813;DHT22;10066;48.108;11.448;2023-07-24T03:06:00;18.80;99.90
19813;DHT22;10066;48.108;11.448;2023-07-24T03:08:27;18.90;99.90
19813;DHT22;10066;48.108;11.448;2023-07-24T03:10:55;18.90;99.90
19813;DHT22;10066;48.108;11.448;2023-07-24T03:13:22;19.00;99.90
19813;DHT22;10066;48.108;11.448;2023-07-24T03:15:52;19.00;99.90
19813;DHT22;10066;48.108;11.448;2023-07-24T03:18:20;19.10;99.90
19813;DHT22;10066;48.108;11.448;2023-07-24T03:20:47;19.00;99.90
19813;DHT22;10066;48.108;11.448;2023-07-24T03:23:14;18.90;99.90
19813;DHT22;10066;48.108;11.448;2023-07-24T03:25:41;18.80;99.90
19813;DHT22;10066;48.108;11.448;2023-07-24T03:28:09;18.60;99.90
19813;DHT22;10066;48.108;11.448;2023-07-24T03:30:36;18.50;99.90
19813;DHT22;10066;48.108;11.448;2023-07-24T03:33:04;18.30;99.90
19813;DHT22;10066;48.108;11.448;2023-07-24T03:35:32;18.10;99.90
19813;DHT22;10066;48.108;11.448;2023-07-24T03:37:58;18.00;99.90
19813;DHT22;10066;48.108;11.448;2023-07-24T03:40:25;18.00;99.90
19813;DHT22;10066;48.108;11.448;2023-07-24T03:42:52;17.90;99.90
19813;DHT22;10066;48.108;11.448;2023-07-24T03:45:21;17.90;99.90
19813;DHT22;10066;48.108;11.448;2023-07-24T03:47:48;17.80;99.90
19813;DHT22;10066;48.108;11.448;2023-07-24T03:50:15;17.70;99.90
19813;DHT22;10066;48.108;11.448;2023-07-24T03:52:42;17.50;99.90
19813;DHT22;10066;48.108;11.448;2023-07-24T03:55:09;17.30;99.90
19813;DHT22;10066;48.108;11.448;2023-07-24T03:57:36;17.20;99.90
19813;DHT22;10066;48.108;11.448;2023-07-24T04:00:03;17.10;99.90
19813;DHT22;10066;48.108;11.448;2023-07-24T04:02:32;17.00;99.90
19813;DHT22;10066;48.108;11.448;2023-07-24T04:04:59;17.00;99.90
19813;DHT22;10066;48.108;11.448;2023-07-24T04:07:26;17.00;99.90
19813;DHT22;10066;48.108;11.448;2023-07-24T04:09:53;17.00;99.90
19813;DHT22;10066;48.108;11.448;2023-07-24T04:12:20;17.00;99.90
19813;DHT22;10066;48.108;11.448;2023-07-24T04:14:47;17.00;99.90
19813;DHT22;10066;48.108;11.448;2023-07-24T04:17:16;17.00;99.90
19813;DHT22;10066;48.108;11.448;2023-07-24T04:19:44;17.10;99.90
19813;DHT22;10066;48.108;11.448;2023-07-24T04:22:11;17.10;99.90
19813;DHT22;10066;48.108;11.448;2023-07-24T04:24:38;17.20;99.90
19813;DHT22;10066;48.108;11.448;2023-07-24T04:27:05;17.20;99.90
19813;DHT22;10066;48.108;11.448;2023-07-24T04:29:32;17.30;99.90
19813;DHT22;10066;48.108;11.448;2023-07-24T04:31:58;17.30;99.90
19813;DHT22;10066;48.108;11.448;2023-07-24T04:34:25;17.30;99.90
19813;DHT22;10066;48.108;11.448;2023-07-24T04:36:54;17.40;99.90
19813;DHT22;10066;48.108;11.448;2023-07-24T04:39:20;17.40;99.90
19813;DHT22;10066;48.108;11.448;2023-07-24T04:41:47;17.50;99.90
19813;DHT22;10066;48.108;11.448;2023-07-24T04:44:14;17.50;99.90
19813;DHT22;10066;48.108;11.448;2023-07-24T04:46:41;17.60;99.90
19813;DHT22;10066;48.108;11.448;2023-07-24T04:49:08;17.60;99.90
19813;DHT22;10066;48.108;11.448;2023-07-24T04:51:35;17.60;99.90
19813;DHT22;10066;48.108;11.448;2023-07-24T04:54:04;17.70;99.90
19813;DHT22;10066;48.108;11.448;2023-07-24T04:56:30;17.70;99.90
19813;DHT22;10066;48.108;11.448;2023-07-24T04:58:57;17.70;99.90
19813;DHT22;10066;48.108;11.448;2023-07-24T05:01:24;17.70;99.90
19813;DHT22;10066;48.108;11.448;2023-07-24T05:03:51;17.70;99.90
19813;DHT22;10066;48.108;11.448;2023-07-24T05:06:18;17.80;99.90
19813;DHT22;10066;48.108;11.448;2023-07-24T05:08:46;17.90;99.90
19813;DHT22;10066;48.108;11.448;2023-07-24T05:11:14;18.00;99.90
19813;DHT22;10066;48.108;11.448;2023-07-24T05:13:41;18.20;99.90
19813;DHT22;10066;48.108;11.448;2023-07-24T05:16:08;18.20;99.90
19813;DHT22;10066;48.108;11.448;2023-07-24T05:18:35;18.30;99.90
19813;DHT22;10066;48.108;11.448;2023-07-24T05:21:02;18.40;99.90
19813;DHT22;10066;48.108;11.448;2023-07-24T05:23:29;18.40;99.90
19813;DHT22;10066;48.108;11.448;2023-07-24T05:25:57;18.40;99.90
19813;DHT22;10066;48.108;11.448;2023-07-24T05:28:26;18.50;99.90
19813;DHT22;10066;48.108;11.448;2023-07-24T05:30:53;18.50;99.90
19813;DHT22;10066;48.108;11.448;2023-07-24T05:33:21;18.50;99.90
19813;DHT22;10066;48.108;11.448;2023-07-24T05:35:48;18.50;99.90
19813;DHT22;10066;48.108;11.448;2023-07-24T05:38:15;18.50;99.90
19813;DHT22;10066;48.108;11.448;2023-07-24T05:40:42;18.70;99.90
19813;DHT22;10066;48.108;11.448;2023-07-24T05:43:09;18.70;99.90
19813;DHT22;10066;48.108;11.448;2023-07-24T05:45:37;18.80;99.90
19813;DHT22;10066;48.108;11.448;2023-07-24T05:48:04;19.00;99.90
19813;DHT22;10066;48.108;11.448;2023-07-24T05:50:32;19.20;99.90
19813;DHT22;10066;48.108;11.448;2023-07-24T05:52:58;19.40;99.90
19813;DHT22;10066;48.108;11.448;2023-07-24T05:55:25;19.60;99.90
19813;DHT22;10066;48.108;11.448;2023-07-24T05:57:52;19.70;99.90
19813;DHT22;10066;48.108;11.448;2023-07-24T06:00:19;19.80;99.90
19813;DHT22;10066;48.108;11.448;2023-07-24T06:02:48;20.00;99.90
19813;DHT22;10066;48.108;11.448;2023-07-24T06:05:15;20.10;99.90
19813;DHT22;10066;48.108;11.448;2023-07-24T06:07:42;20.30;99.90
19813;DHT22;10066;48.108;11.448;2023-07-24T06:10:09;20.50;99.90
19813;DHT22;10066;48.108;11.448;2023-07-24T06:12:36;21.00;99.90
19813;DHT22;10066;48.108;11.448;2023-07-24T06:15:04;22.00;99.90
19813;DHT22;10066;48.108;11.448;2023-07-24T06:17:31;23.30;99.90
19813;DHT22;10066;48.108;11.448;2023-07-24T06:20:00;23.90;99.90
19813;DHT22;10066;48.108;11.448;2023-07-24T06:22:26;23.80;99.90
19813;DHT22;10066;48.108;11.448;2023-07-24T06:24:53;23.60;99.90
19813;DHT22;10066;48.108;11.448;2023-07-24T06:27:20;23.50;99.90
19813;DHT22;10066;48.108;11.448;2023-07-24T06:29:47;24.30;99.90
19813;DHT22;10066;48.108;11.448;2023-07-24T06:32:14;24.60;99.90
19813;DHT22;10066;48.108;11.448;2023-07-24T06:34:41;25.60;99.90
19813;DHT22;10066;48.108;11.448;2023-07-24T06:37:09;26.50;99.90
19813;DHT22;10066;48.108;11.448;2023-07-24T06:39:36;27.40;99.90
19813;DHT22;10066;48.108;11.448;2023-07-24T06:42:04;28.20;99.90
19813;DHT22;10066;48.108;11.448;2023-07-24T06:44:31;29.00;99.90
19813;DHT22;10066;48.108;11.448;2023-07-24T06:46:58;29.80;99.90
19813;DHT22;10066;48.108;11.448;2023-07-24T06:49:25;30.40;99.90
19813;DHT22;10066;48.108;11.448;2023-07-24T06:51:52;30.90;99.80
19813;DHT22;10066;48.108;11.448;2023-07-24T06:54:20;31.10;98.10
19813;DHT22;10066;48.108;11.448;2023-07-24T06:56:47;31.10;96.30
19813;DHT22;10066;48.108;11.448;2023-07-24T06:59:14;31.10;95.00
19813;DHT22;10066;48.108;11.448;2023-07-24T07:01:41;30.70;94.50
19813;DHT22;10066;48.108;11.448;2023-07-24T07:04:08;30.00;95.00
19813;DHT22;10066;48.108;11.448;2023-07-24T07:06:35;29.30;96.10
19813;DHT22;10066;48.108;11.448;2023-07-24T07:09:02;28.60;96.70
19813;DHT22;10066;48.108;11.448;2023-07-24T07:11:31;28.10;97.20
19813;DHT22;10066;48.108;11.448;2023-07-24T07:13:58;27.70;97.70
19813;DHT22;10066;48.108;11.448;2023-07-24T07:16:25;27.40;98.10
19813;DHT22;10066;48.108;11.448;2023-07-24T07:18:52;27.20;98.20
19813;DHT22;10066;48.108;11.448;2023-07-24T07:21:19;27.10;98.20
19813;DHT22;10066;48.108;11.448;2023-07-24T07:23:46;27.10;97.70
19813;DHT22;10066;48.108;11.448;2023-07-24T07:26:13;27.20;97.90
19813;DHT22;10066;48.108;11.448;2023-07-24T07:28:41;27.10;97.50
19813;DHT22;10066;48.108;11.448;2023-07-24T07:31:10;27.00;97.30
19813;DHT22;10066;48.108;11.448;2023-07-24T07:33:37;26.80;97.40
19813;DHT22;10066;48.108;11.448;2023-07-24T07:36:05;26.60;97.40
19813;DHT22;10066;48.108;11.448;2023-07-24T07:38:32;26.50;97.70
19813;DHT22;10066;48.108;11.448;2023-07-24T07:41:04;26.20;97.40
19813;DHT22;10066;48.108;11.448;2023-07-24T07:43:30;25.70;96.10
19813;DHT22;10066;48.108;11.448;2023-07-24T07:45:59;25.20;97.30
19813;DHT22;10066;48.108;11.448;2023-07-24T07:48:26;24.90;98.10
19813;DHT22;10066;48.108;11.448;2023-07-24T07:50:53;24.60;99.00
19813;DHT22;10066;48.108;11.448;2023-07-24T07:53:20;24.40;99.90
19813;DHT22;10066;48.108;11.448;2023-07-24T07:55:55;24.20;99.90
19813;DHT22;10066;48.108;11.448;2023-07-24T07:58:22;23.90;99.90
19813;DHT22;10066;48.108;11.448;2023-07-24T08:00:49;23.70;99.90
19813;DHT22;10066;48.108;11.448;2023-07-24T08:03:17;23.40;99.90
19813;DHT22;10066;48.108;11.448;2023-07-24T08:05:44;23.30;99.90
19813;DHT22;10066;48.108;11.448;2023-07-24T08:08:11;23.20;99.90
19813;DHT22;10066;48.108;11.448;2023-07-24T08:10:38;23.10;99.90
19813;DHT22;10066;48.108;11.448;2023-07-24T08:13:05;22.90;99.90
19813;DHT22;10066;48.108;11.448;2023-07-24T08:15:34;22.80;99.90
19813;DHT22;10066;48.108;11.448;2023-07-24T08:18:02;22.70;99.90
19813;DHT22;10066;48.108;11.448;2023-07-24T08:20:31;22.60;99.90
19813;DHT22;10066;48.108;11.448;2023-07-24T08:22:58;22.50;99.90
19813;DHT22;10066;48.108;11.448;2023-07-24T08:25:25;22.50;99.90
19813;DHT22;10066;48.108;11.448;2023-07-24T08:27:52;22.50;99.90
19813;DHT22;10066;48.108;11.448;2023-07-24T08:30:19;22.50;99.90
19813;DHT22;10066;48.108;11.448;2023-07-24T08:32:46;22.50;99.90
19813;DHT22;10066;48.108;11.448;2023-07-24T08:35:15;22.40;99.90
19813;DHT22;10066;48.108;11.448;2023-07-24T08:37:44;22.40;99.90
19813;DHT22;10066;48.108;11.448;2023-07-24T08:40:11;22.30;99.90
19813;DHT22;10066;48.108;11.448;2023-07-24T08:42:39;22.20;99.90
19813;DHT22;10066;48.108;11.448;2023-07-24T08:45:11;22.10;99.90
19813;DHT22;10066;48.108;11.448;2023-07-24T08:47:42;22.10;99.90
19813;DHT22;10066;48.108;11.448;2023-07-24T08:50:10;22.10;99.90
19813;DHT22;10066;48.108;11.448;2023-07-24T08:52:38;22.20;99.90
19813;DHT22;10066;48.108;11.448;2023-07-24T08:55:07;22.30;99.90
19813;DHT22;10066;48.108;11.448;2023-07-24T08:57:34;22.30;99.90
19813;DHT22;10066;48.108;11.448;2023-07-24T09:00:02;22.40;99.90
19813;DHT22;10066;48.108;11.448;2023-07-24T09:02:31;22.40;99.90
19813;DHT22;10066;48.108;11.448;2023-07-24T09:04:58;22.50;99.90
19813;DHT22;10066;48.108;11.448;2023-07-24T09:07:25;22.50;99.90
19813;DHT22;10066;48.108;11.448;2023-07-24T09:09:52;22.50;99.90
19813;DHT22;10066;48.108;11.448;2023-07-24T09:12:22;22.40;99.90
19813;DHT22;10066;48.108;11.448;2023-07-24T09:14:59;22.40;99.90
19813;DHT22;10066;48.108;11.448;2023-07-24T09:17:26;22.40;99.90
19813;DHT22;10066;48.108;11.448;2023-07-24T09:19:56;22.30;99.90
19813;DHT22;10066;48.108;11.448;2023-07-24T09:22:23;22.30;99.90
19813;DHT22;10066;48.108;11.448;2023-07-24T09:24:53;22.30;99.90
19813;DHT22;10066;48.108;11.448;2023-07-24T09:27:25;22.30;99.90
19813;DHT22;10066;48.108;11.448;2023-07-24T09:29:52;22.30;99.90
19813;DHT22;10066;48.108;11.448;2023-07-24T09:32:21;22.30;99.90
19813;DHT22;10066;48.108;11.448;2023-07-24T09:34:48;22.30;99.90
19813;DHT22;10066;48.108;11.448;2023-07-24T09:37:24;22.40;99.90
19813;DHT22;10066;48.108;11.448;2023-07-24T09:39:52;22.60;99.90
19813;DHT22;10066;48.108;11.448;2023-07-24T09:42:29;22.80;99.90
19813;DHT22;10066;48.108;11.448;2023-07-24T09:44:56;23.10;99.90
19813;DHT22;10066;48.108;11.448;2023-07-24T09:47:23;23.40;99.90
19813;DHT22;10066;48.108;11.448;2023-07-24T09:49:50;23.60;99.90
19813;DHT22;10066;48.108;11.448;2023-07-24T09:52:19;23.90;99.90
19813;DHT22;10066;48.108;11.448;2023-07-24T09:54:55;24.00;99.90
19813;DHT22;10066;48.108;11.448;2023-07-24T09:57:23;24.30;99.90
19813;DHT22;10066;48.108;11.448;2023-07-24T09:59:56;24.50;99.90
19813;DHT22;10066;48.108;11.448;2023-07-24T10:02:24;24.80;99.90
19813;DHT22;10066;48.108;11.448;2023-07-24T10:04:52;25.10;99.90
19813;DHT22;10066;48.108;11.448;2023-07-24T10:07:19;25.30;99.90
19813;DHT22;10066;48.108;11.448;2023-07-24T10:09:48;25.50;99.90
19813;DHT22;10066;48.108;11.448;2023-07-24T10:12:16;25.70;99.90
19813;DHT22;10066;48.108;11.448;2023-07-24T10:14:44;25.90;99.90
19813;DHT22;10066;48.108;11.448;2023-07-24T10:17:13;26.10;99.90
19813;DHT22;10066;48.108;11.448;2023-07-24T10:19:41;26.20;99.90
19813;DHT22;10066;48.108;11.448;2023-07-24T10:22:09;26.40;99.80
19813;DHT22;10066;48.108;11.448;2023-07-24T10:24:43;26.50;99.60
19813;DHT22;10066;48.108;11.448;2023-07-24T10:27:10;26.70;99.90
19813;DHT22;10066;48.108;11.448;2023-07-24T10:32:18;27.00;98.70
19813;DHT22;10066;48.108;11.448;2023-07-24T10:34:45;27.20;97.80
19813;DHT22;10066;48.108;11.448;2023-07-24T10:37:12;27.40;98.20
19813;DHT22;10066;48.108;11.448;2023-07-24T10:39:40;27.50;96.90
19813;DHT22;10066;48.108;11.448;2023-07-24T10:42:08;27.70;95.90
19813;DHT22;10066;48.108;11.448;2023-07-24T10:44:36;27.80;95.00
19813;DHT22;10066;48.108;11.448;2023-07-24T10:47:03;27.90;93.60
19813;DHT22;10066;48.108;11.448;2023-07-24T10:49:32;27.90;93.20
19813;DHT22;10066;48.108;11.448;2023-07-24T10:51:59;27.90;92.80
19813;DHT22;10066;48.108;11.448;2023-07-24T10:54:26;27.90;92.50
19813;DHT22;10066;48.108;11.448;2023-07-24T10:56:58;27.90;92.10
19813;DHT22;10066;48.108;11.448;2023-07-24T10:59:36;28.00;91.70
19813;DHT22;10066;48.108;11.448;2023-07-24T11:02:04;28.00;91.20
19813;DHT22;10066;48.108;11.448;2023-07-24T11:04:32;28.10;91.70
19813;DHT22;10066;48.108;11.448;2023-07-24T11:07:00;28.20;91.20
19813;DHT22;10066;48.108;11.448;2023-07-24T11:09:36;28.30;91.20
19813;DHT22;10066;48.108;11.448;2023-07-24T11:12:13;28.40;90.10
19813;DHT22;10066;48.108;11.448;2023-07-24T11:14:50;28.40;88.80
19813;DHT22;10066;48.108;11.448;2023-07-24T11:17:19;28.30;89.30
19813;DHT22;10066;48.108;11.448;2023-07-24T11:19:48;28.10;90.40
19813;DHT22;10066;48.108;11.448;2023-07-24T11:22:15;28.10;91.10
19813;DHT22;10066;48.108;11.448;2023-07-24T11:24:43;28.00;91.10
19813;DHT22;10066;48.108;11.448;2023-07-24T11:27:12;27.90;90.80
19813;DHT22;10066;48.108;11.448;2023-07-24T11:29:40;27.90;91.10
19813;DHT22;10066;48.108;11.448;2023-07-24T11:32:07;27.80;90.30
19813;DHT22;10066;48.108;11.448;2023-07-24T11:34:35;27.60;90.30
19813;DHT22;10066;48.108;11.448;2023-07-24T11:37:05;27.50;90.40
19813;DHT22;10066;48.108;11.448;2023-07-24T11:39:32;27.50;90.60
19813;DHT22;10066;48.108;11.448;2023-07-24T11:42:00;27.50;90.90
19813;DHT22;10066;48.108;11.448;2023-07-24T11:44:28;27.40;89.30
19813;DHT22;10066;48.108;11.448;2023-07-24T11:47:01;27.40;89.30
19813;DHT22;10066;48.108;11.448;2023-07-24T11:49:28;27.30;88.60
19813;DHT22;10066;48.108;11.448;2023-07-24T11:52:00;27.20;90.10
19813;DHT22;10066;48.108;11.448;2023-07-24T11:54:29;27.20;90.00
19813;DHT22;10066;48.108;11.448;2023-07-24T11:56:56;27.30;90.20
19813;DHT22;10066;48.108;11.448;2023-07-24T11:59:24;27.30;88.80
19813;DHT22;10066;48.108;11.448;2023-07-24T12:01:51;27.30;87.90
19813;DHT22;10066;48.108;11.448;2023-07-24T12:04:19;27.20;87.60
19813;DHT22;10066;48.108;11.448;2023-07-24T12:06:46;27.20;88.60
19813;DHT22;10066;48.108;11.448;2023-07-24T12:09:13;27.30;89.40
19813;DHT22;10066;48.108;11.448;2023-07-24T12:11:42;27.10;86.70
19813;DHT22;10066;48.108;11.448;2023-07-24T12:14:10;27.00;87.20
19813;DHT22;10066;48.108;11.448;2023-07-24T12:16:38;27.00;88.90
19813;DHT22;10066;48.108;11.448;2023-07-24T12:19:05;27.00;87.60
19813;DHT22;10066;48.108;11.448;2023-07-24T12:21:32;26.90;90.10
19813;DHT22;10066;48.108;11.448;2023-07-24T12:23:59;26.80;90.20
19813;DHT22;10066;48.108;11.448;2023-07-24T12:26:25;26.50;90.00
19813;DHT22;10066;48.108;11.448;2023-07-24T12:28:54;26.20;90.10
19813;DHT22;10066;48.108;11.448;2023-07-24T12:31:21;25.70;91.60
19813;DHT22;10066;48.108;11.448;2023-07-24T12:33:48;25.30;93.10
19813;DHT22;10066;48.108;11.448;2023-07-24T12:36:15;24.90;95.80
19813;DHT22;10066;48.108;11.448;2023-07-24T12:38:42;23.60;99.90
19813;DHT22;10066;48.108;11.448;2023-07-24T12:41:09;23.10;99.90
19813;DHT22;10066;48.108;11.448;2023-07-24T12:43:36;22.50;99.90
19813;DHT22;10066;48.108;11.448;2023-07-24T12:46:04;22.20;99.90
19813;DHT22;10066;48.108;11.448;2023-07-24T12:48:31;21.90;99.90
19813;DHT22;10066;48.108;11.448;2023-07-24T12:50:58;21.70;99.90
19813;DHT22;10066;48.108;11.448;2023-07-24T12:53:26;21.70;99.90
19813;DHT22;10066;48.108;11.448;2023-07-24T12:55:53;21.60;99.90
19813;DHT22;10066;48.108;11.448;2023-07-24T12:58:20;21.60;99.90
19813;DHT22;10066;48.108;11.448;2023-07-24T13:00:47;21.70;99.90
19813;DHT22;10066;48.108;11.448;2023-07-24T13:03:16;21.80;99.90
19813;DHT22;10066;48.108;11.448;2023-07-24T13:05:43;21.80;99.90
19813;DHT22;10066;48.108;11.448;2023-07-24T13:08:10;21.80;99.90
19813;DHT22;10066;48.108;11.448;2023-07-24T13:10:37;21.80;99.90
19813;DHT22;10066;48.108;11.448;2023-07-24T13:13:04;21.70;99.90
19813;DHT22;10066;48.108;11.448;2023-07-24T13:15:31;21.60;99.90
19813;DHT22;10066;48.108;11.448;2023-07-24T13:17:58;21.50;99.90
19813;DHT22;10066;48.108;11.448;2023-07-24T13:20:26;21.50;99.90
19813;DHT22;10066;48.108;11.448;2023-07-24T13:22:53;21.30;99.90
19813;DHT22;10066;48.108;11.448;2023-07-24T13:25:20;21.30;99.90
19813;DHT22;10066;48.108;11.448;2023-07-24T13:27:47;21.10;99.90
19813;DHT22;10066;48.108;11.448;2023-07-24T13:30:14;21.10;99.90
19813;DHT22;10066;48.108;11.448;2023-07-24T13:32:41;21.00;99.90
19813;DHT22;10066;48.108;11.448;2023-07-24T13:35:08;21.00;99.90
19813;DHT22;10066;48.108;11.448;2023-07-24T13:37:37;20.80;99.90
19813;DHT22;10066;48.108;11.448;2023-07-24T13:40:05;20.80;99.90
19813;DHT22;10066;48.108;11.448;2023-07-24T13:42:32;20.70;99.90
19813;DHT22;10066;48.108;11.448;2023-07-24T13:44:59;20.80;99.90
19813;DHT22;10066;48.108;11.448;2023-07-24T13:47:26;20.90;99.90
19813;DHT22;10066;48.108;11.448;2023-07-24T13:49:53;21.10;99.90
19813;DHT22;10066;48.108;11.448;2023-07-24T13:52:22;21.20;99.90
19813;DHT22;10066;48.108;11.448;2023-07-24T13:54:50;21.40;99.90
19813;DHT22;10066;48.108;11.448;2023-07-24T13:57:17;21.50;99.90
19813;DHT22;10066;48.108;11.448;2023-07-24T13:59:44;21.50;99.90
19813;DHT22;10066;48.108;11.448;2023-07-24T14:02:11;21.60;99.90
19813;DHT22;10066;48.108;11.448;2023-07-24T14:04:38;21.80;99.90
19813;DHT22;10066;48.108;11.448;2023-07-24T14:07:05;21.90;99.90
19813;DHT22;10066;48.108;11.448;2023-07-24T14:09:32;22.00;99.90
19813;DHT22;10066;48.108;11.448;2023-07-24T14:12:02;22.20;99.90
19813;DHT22;10066;48.108;11.448;2023-07-24T14:14:29;22.30;99.90
19813;DHT22;10066;48.108;11.448;2023-07-24T14:16:57;22.50;99.90
19813;DHT22;10066;48.108;11.448;2023-07-24T14:19:24;22.60;99.90
19813;DHT22;10066;48.108;11.448;2023-07-24T14:21:51;22.80;99.90
19813;DHT22;10066;48.108;11.448;2023-07-24T14:24:18;23.00;99.90
19813;DHT22;10066;48.108;11.448;2023-07-24T14:26:45;23.10;99.90
19813;DHT22;10066;48.108;11.448;2023-07-24T14:29:16;23.20;99.90
19813;DHT22;10066;48.108;11.448;2023-07-24T14:31:43;23.30;99.90
19813;DHT22;10066;48.108;11.448;2023-07-24T14:34:10;23.50;99.90
19813;DHT22;10066;48.108;11.448;2023-07-24T14:36:38;23.60;99.90
19813;DHT22;10066;48.108;11.448;2023-07-24T14:39:05;23.80;99.90
19813;DHT22;10066;48.108;11.448;2023-07-24T14:41:34;23.90;99.90
19813;DHT22;10066;48.108;11.448;2023-07-24T14:44:01;24.00;99.90
19813;DHT22;10066;48.108;11.448;2023-07-24T14:46:29;24.10;99.90
19813;DHT22;10066;48.108;11.448;2023-07-24T14:48:56;24.20;99.90
19813;DHT22;10066;48.108;11.448;2023-07-24T14:51:23;24.20;99.90
19813;DHT22;10066;48.108;11.448;2023-07-24T14:53:50;24.30;99.90
19813;DHT22;10066;48.108;11.448;2023-07-24T14:56:17;24.30;99.90
19813;DHT22;10066;48.108;11.448;2023-07-24T14:58:44;24.30;99.90
19813;DHT22;10066;48.108;11.448;2023-07-24T15:01:11;24.30;99.90
19813;DHT22;10066;48.108;11.448;2023-07-24T15:03:40;24.30;99.90
19813;DHT22;10066;48.108;11.448;2023-07-24T15:06:06;24.20;99.90
19813;DHT22;10066;48.108;11.448;2023-07-24T15:08:34;24.20;99.90
19813;DHT22;10066;48.108;11.448;2023-07-24T15:11:01;24.10;99.90
19813;DHT22;10066;48.108;11.448;2023-07-24T15:13:28;24.10;99.90
19813;DHT22;10066;48.108;11.448;2023-07-24T15:15:55;24.00;99.90
19813;DHT22;10066;48.108;11.448;2023-07-24T15:18:22;23.90;99.90
19813;DHT22;10066;48.108;11.448;2023-07-24T15:20:50;23.80;99.90
19813;DHT22;10066;48.108;11.448;2023-07-24T15:23:19;23.80;99.90